Airfield :
LOGIN :

Register | Disclaimer

   EN    FR    IT 

 










Legend :    VFR   Marginal VFR   IFR   Intensive IFR   Very Intensive IFR
Visi :
Ceiling :
>= 8 km
>= 3000ft
5 to 8 km
1000 to 3000 ft
1500m to 5 km
500 to 1000 ft
800 to 1500m
200 to 500 ft
< 800m
< 200 ft
Symbols :   Thunderstorms  Fog  Heavy snow  Heavy precipitations  Wind > 20 kt
SIGMETs :     Misc.  Thunderstorms  Icing  Turbulence  Mountain Waves  Volcanic Ashes






- Airport Elevation : 0 ft


ENOA - Oseberg A Platform

CURRENT METAR :
  • 080950Z 25014KT 6000 SCT010 BKN025 05/04 Q1018 W///S5

EXPIRED METARs :
  • 080920Z 26014KT 5000 -RA FEW009 BKN015 06/05 Q1017 W///S5
  • 080850Z 27012KT 9999 FEW006 BKN018 05/05 Q1017 W///S5
  • 080820Z 28017KT 6000 BKN010 05/04 Q1017 W///S5
  • 080750Z 29017KT 6000 -RA BKN010 05/04 Q1017 W///S5
  • 080720Z 31015KT 5000 -DZ OVC009 06/05 Q1017 W///S5

TAF ENOA
Valid from the 08 at 09:00 until the 09 at 09:00 UTC


0809/0909 29020KT 9999 -SHRA FEW020 BKN030
TEMPO 0809/0810 4000 RADZ BKN009
PROB30
TEMPO 0810/0903 SCT020CB
BECMG 0815/0817 32030KT
BECMG 0907/0909 34020KT



MET'MAP, your aeronautical weather chart ! - Copyright ORBIFLY December 2007 - Disclaimer

ORBIFLY MET'MAP TEAM :

Programming & Development : Alexandra Zaïnal
Concept & original design : Baudouin d'Aumeries
Assistance for programming : Marc-Olivier Méhu
Technical & hardware support : Manuel Goepfert

Contact : metmap@orbifly.com




SOURCES & CREDITS :

   NOAA